sensor_id;sensor_type;location;lat;lon;timestamp;P1;durP1;ratioP1;P2;durP2;ratioP2
20531;SDS011;10424;52.102;8.084;2023-04-25T00:02:15;15.27;;;5.78;;
20531;SDS011;10424;52.102;8.084;2023-04-25T00:04:43;13.57;;;5.00;;
20531;SDS011;10424;52.102;8.084;2023-04-25T00:07:10;15.27;;;5.38;;
20531;SDS011;10424;52.102;8.084;2023-04-25T00:09:37;15.18;;;5.20;;
20531;SDS011;10424;52.102;8.084;2023-04-25T00:12:06;14.98;;;4.90;;
20531;SDS011;10424;52.102;8.084;2023-04-25T00:14:34;11.85;;;5.30;;
20531;SDS011;10424;52.102;8.084;2023-04-25T00:17:01;14.30;;;5.30;;
20531;SDS011;10424;52.102;8.084;2023-04-25T00:19:29;14.23;;;4.68;;
20531;SDS011;10424;52.102;8.084;2023-04-25T00:21:57;12.85;;;4.53;;
20531;SDS011;10424;52.102;8.084;2023-04-25T00:24:25;13.85;;;5.20;;
20531;SDS011;10424;52.102;8.084;2023-04-25T00:26:52;16.60;;;4.82;;
20531;SDS011;10424;52.102;8.084;2023-04-25T00:29:20;13.13;;;5.18;;
20531;SDS011;10424;52.102;8.084;2023-04-25T00:31:48;13.38;;;4.45;;
20531;SDS011;10424;52.102;8.084;2023-04-25T00:34:15;15.35;;;5.50;;
20531;SDS011;10424;52.102;8.084;2023-04-25T00:36:42;14.75;;;5.57;;
20531;SDS011;10424;52.102;8.084;2023-04-25T00:39:10;12.98;;;5.40;;
20531;SDS011;10424;52.102;8.084;2023-04-25T00:41:37;16.52;;;4.93;;
20531;SDS011;10424;52.102;8.084;2023-04-25T00:44:05;11.50;;;5.20;;
20531;SDS011;10424;52.102;8.084;2023-04-25T00:46:34;12.32;;;5.47;;
20531;SDS011;10424;52.102;8.084;2023-04-25T00:49:02;15.93;;;6.03;;
20531;SDS011;10424;52.102;8.084;2023-04-25T00:51:29;19.20;;;5.40;;
20531;SDS011;10424;52.102;8.084;2023-04-25T00:53:57;16.92;;;5.20;;
20531;SDS011;10424;52.102;8.084;2023-04-25T00:56:24;13.20;;;5.07;;
20531;SDS011;10424;52.102;8.084;2023-04-25T00:58:52;14.75;;;5.20;;
20531;SDS011;10424;52.102;8.084;2023-04-25T01:01:21;15.07;;;6.03;;
20531;SDS011;10424;52.102;8.084;2023-04-25T01:03:50;14.43;;;5.57;;
20531;SDS011;10424;52.102;8.084;2023-04-25T01:06:17;13.52;;;5.32;;
20531;SDS011;10424;52.102;8.084;2023-04-25T01:08:45;13.98;;;4.97;;
20531;SDS011;10424;52.102;8.084;2023-04-25T01:11:12;9.90;;;5.03;;
20531;SDS011;10424;52.102;8.084;2023-04-25T01:13:39;11.93;;;5.15;;
20531;SDS011;10424;52.102;8.084;2023-04-25T01:16:07;12.35;;;5.43;;
20531;SDS011;10424;52.102;8.084;2023-04-25T01:18:34;13.77;;;5.03;;
20531;SDS011;10424;52.102;8.084;2023-04-25T01:21:06;12.80;;;4.78;;
20531;SDS011;10424;52.102;8.084;2023-04-25T01:23:34;12.32;;;5.07;;
20531;SDS011;10424;52.102;8.084;2023-04-25T01:26:02;11.05;;;4.95;;
20531;SDS011;10424;52.102;8.084;2023-04-25T01:28:30;14.05;;;5.15;;
20531;SDS011;10424;52.102;8.084;2023-04-25T01:30:58;8.88;;;4.80;;
20531;SDS011;10424;52.102;8.084;2023-04-25T01:33:25;13.68;;;4.95;;
20531;SDS011;10424;52.102;8.084;2023-04-25T01:35:53;11.35;;;5.10;;
20531;SDS011;10424;52.102;8.084;2023-04-25T01:38:21;9.80;;;4.55;;
20531;SDS011;10424;52.102;8.084;2023-04-25T01:40:49;15.65;;;5.07;;
20531;SDS011;10424;52.102;8.084;2023-04-25T01:43:17;13.35;;;4.45;;
20531;SDS011;10424;52.102;8.084;2023-04-25T01:45:45;11.55;;;4.78;;
20531;SDS011;10424;52.102;8.084;2023-04-25T01:48:13;15.82;;;4.95;;
20531;SDS011;10424;52.102;8.084;2023-04-25T01:50:40;13.23;;;5.00;;
20531;SDS011;10424;52.102;8.084;2023-04-25T01:53:08;12.90;;;5.35;;
20531;SDS011;10424;52.102;8.084;2023-04-25T01:55:37;16.92;;;4.90;;
20531;SDS011;10424;52.102;8.084;2023-04-25T01:58:04;10.02;;;4.85;;
20531;SDS011;10424;52.102;8.084;2023-04-25T02:00:34;17.17;;;5.15;;
20531;SDS011;10424;52.102;8.084;2023-04-25T02:03:03;14.88;;;5.50;;
20531;SDS011;10424;52.102;8.084;2023-04-25T02:05:33;14.32;;;4.78;;
20531;SDS011;10424;52.102;8.084;2023-04-25T02:08:01;13.27;;;4.67;;
20531;SDS011;10424;52.102;8.084;2023-04-25T02:10:28;13.50;;;4.88;;
20531;SDS011;10424;52.102;8.084;2023-04-25T02:12:58;12.77;;;5.60;;
20531;SDS011;10424;52.102;8.084;2023-04-25T02:15:25;18.20;;;5.13;;
20531;SDS011;10424;52.102;8.084;2023-04-25T02:17:52;15.07;;;5.30;;
20531;SDS011;10424;52.102;8.084;2023-04-25T02:20:20;14.18;;;5.30;;
20531;SDS011;10424;52.102;8.084;2023-04-25T02:22:48;14.95;;;5.00;;
20531;SDS011;10424;52.102;8.084;2023-04-25T02:25:15;17.13;;;5.20;;
20531;SDS011;10424;52.102;8.084;2023-04-25T02:27:42;16.50;;;5.40;;
20531;SDS011;10424;52.102;8.084;2023-04-25T02:30:12;19.88;;;5.75;;
20531;SDS011;10424;52.102;8.084;2023-04-25T02:32:39;18.13;;;5.28;;
20531;SDS011;10424;52.102;8.084;2023-04-25T02:35:07;17.98;;;5.15;;
20531;SDS011;10424;52.102;8.084;2023-04-25T02:37:35;22.25;;;5.65;;
20531;SDS011;10424;52.102;8.084;2023-04-25T02:40:02;11.07;;;5.03;;
20531;SDS011;10424;52.102;8.084;2023-04-25T02:42:30;16.48;;;4.95;;
20531;SDS011;10424;52.102;8.084;2023-04-25T02:44:57;17.65;;;5.30;;
20531;SDS011;10424;52.102;8.084;2023-04-25T02:47:26;18.10;;;5.47;;
20531;SDS011;10424;52.102;8.084;2023-04-25T02:49:53;16.92;;;5.40;;
20531;SDS011;10424;52.102;8.084;2023-04-25T02:52:20;13.70;;;4.32;;
20531;SDS011;10424;52.102;8.084;2023-04-25T02:54:48;12.70;;;4.70;;
20531;SDS011;10424;52.102;8.084;2023-04-25T02:57:15;15.43;;;4.70;;
20531;SDS011;10424;52.102;8.084;2023-04-25T02:59:42;16.73;;;5.18;;
20531;SDS011;10424;52.102;8.084;2023-04-25T03:02:09;19.10;;;4.80;;
20531;SDS011;10424;52.102;8.084;2023-04-25T03:04:38;15.13;;;4.80;;
20531;SDS011;10424;52.102;8.084;2023-04-25T03:07:05;17.73;;;4.82;;
20531;SDS011;10424;52.102;8.084;2023-04-25T03:09:33;20.63;;;4.55;;
20531;SDS011;10424;52.102;8.084;2023-04-25T03:12:00;15.77;;;4.72;;
20531;SDS011;10424;52.102;8.084;2023-04-25T03:14:27;19.25;;;5.10;;
20531;SDS011;10424;52.102;8.084;2023-04-25T03:16:54;15.90;;;4.80;;
20531;SDS011;10424;52.102;8.084;2023-04-25T03:21:50;20.70;;;5.82;;
20531;SDS011;10424;52.102;8.084;2023-04-25T03:24:18;18.60;;;4.90;;
20531;SDS011;10424;52.102;8.084;2023-04-25T03:26:45;18.10;;;4.82;;
20531;SDS011;10424;52.102;8.084;2023-04-25T03:29:13;19.50;;;4.93;;
20531;SDS011;10424;52.102;8.084;2023-04-25T03:31:40;13.68;;;5.10;;
20531;SDS011;10424;52.102;8.084;2023-04-25T03:34:07;20.85;;;5.35;;
20531;SDS011;10424;52.102;8.084;2023-04-25T03:36:34;17.23;;;5.05;;
20531;SDS011;10424;52.102;8.084;2023-04-25T03:39:03;17.52;;;4.88;;
20531;SDS011;10424;52.102;8.084;2023-04-25T03:41:31;17.07;;;5.13;;
20531;SDS011;10424;52.102;8.084;2023-04-25T03:43:58;16.92;;;4.63;;
20531;SDS011;10424;52.102;8.084;2023-04-25T03:46:25;20.92;;;5.22;;
20531;SDS011;10424;52.102;8.084;2023-04-25T03:48:53;16.80;;;5.20;;
20531;SDS011;10424;52.102;8.084;2023-04-25T03:51:20;15.27;;;5.20;;
20531;SDS011;10424;52.102;8.084;2023-04-25T03:53:47;18.73;;;5.13;;
20531;SDS011;10424;52.102;8.084;2023-04-25T03:56:16;17.95;;;5.07;;
20531;SDS011;10424;52.102;8.084;2023-04-25T03:58:43;16.25;;;5.30;;
20531;SDS011;10424;52.102;8.084;2023-04-25T04:01:10;13.98;;;5.00;;
20531;SDS011;10424;52.102;8.084;2023-04-25T04:03:37;17.38;;;4.85;;
20531;SDS011;10424;52.102;8.084;2023-04-25T04:06:05;22.67;;;5.38;;
20531;SDS011;10424;52.102;8.084;2023-04-25T04:08:33;17.63;;;5.03;;
20531;SDS011;10424;52.102;8.084;2023-04-25T04:11:00;18.67;;;5.30;;
20531;SDS011;10424;52.102;8.084;2023-04-25T04:13:29;18.10;;;4.78;;
20531;SDS011;10424;52.102;8.084;2023-04-25T04:15:56;17.13;;;4.40;;
20531;SDS011;10424;52.102;8.084;2023-04-25T04:18:24;17.73;;;5.23;;
20531;SDS011;10424;52.102;8.084;2023-04-25T04:20:51;18.77;;;5.30;;
20531;SDS011;10424;52.102;8.084;2023-04-25T04:23:18;18.17;;;4.87;;
20531;SDS011;10424;52.102;8.084;2023-04-25T04:25:47;13.40;;;5.10;;
20531;SDS011;10424;52.102;8.084;2023-04-25T04:28:15;18.33;;;5.40;;
20531;SDS011;10424;52.102;8.084;2023-04-25T04:30:44;17.93;;;5.47;;
20531;SDS011;10424;52.102;8.084;2023-04-25T04:33:12;18.57;;;5.50;;
20531;SDS011;10424;52.102;8.084;2023-04-25T04:35:40;16.07;;;5.37;;
20531;SDS011;10424;52.102;8.084;2023-04-25T04:38:08;17.92;;;4.75;;
20531;SDS011;10424;52.102;8.084;2023-04-25T04:40:35;17.10;;;4.47;;
20531;SDS011;10424;52.102;8.084;2023-04-25T04:43:03;18.37;;;5.30;;
20531;SDS011;10424;52.102;8.084;2023-04-25T04:45:30;24.40;;;5.77;;
20531;SDS011;10424;52.102;8.084;2023-04-25T04:47:59;12.43;;;5.33;;
20531;SDS011;10424;52.102;8.084;2023-04-25T04:50:27;17.40;;;5.47;;
20531;SDS011;10424;52.102;8.084;2023-04-25T04:52:54;13.97;;;4.90;;
20531;SDS011;10424;52.102;8.084;2023-04-25T04:55:21;18.63;;;5.77;;
20531;SDS011;10424;52.102;8.084;2023-04-25T04:57:48;17.43;;;5.10;;
20531;SDS011;10424;52.102;8.084;2023-04-25T05:00:16;22.50;;;5.10;;
20531;SDS011;10424;52.102;8.084;2023-04-25T05:02:43;15.82;;;5.28;;
20531;SDS011;10424;52.102;8.084;2023-04-25T05:05:12;20.33;;;5.47;;
20531;SDS011;10424;52.102;8.084;2023-04-25T05:07:39;21.33;;;5.68;;
20531;SDS011;10424;52.102;8.084;2023-04-25T05:10:07;18.47;;;5.40;;
20531;SDS011;10424;52.102;8.084;2023-04-25T05:12:35;15.03;;;5.03;;
20531;SDS011;10424;52.102;8.084;2023-04-25T05:15:02;15.27;;;4.90;;
20531;SDS011;10424;52.102;8.084;2023-04-25T05:17:29;17.47;;;5.00;;
20531;SDS011;10424;52.102;8.084;2023-04-25T05:19:57;23.93;;;5.00;;
20531;SDS011;10424;52.102;8.084;2023-04-25T05:22:26;23.70;;;4.90;;
20531;SDS011;10424;52.102;8.084;2023-04-25T05:24:53;17.08;;;4.80;;
20531;SDS011;10424;52.102;8.084;2023-04-25T05:27:20;21.90;;;5.10;;
20531;SDS011;10424;52.102;8.084;2023-04-25T05:29:48;17.93;;;4.67;;
20531;SDS011;10424;52.102;8.084;2023-04-25T05:32:15;22.73;;;5.00;;
20531;SDS011;10424;52.102;8.084;2023-04-25T05:34:42;16.07;;;4.30;;
20531;SDS011;10424;52.102;8.084;2023-04-25T05:37:09;17.80;;;4.87;;
20531;SDS011;10424;52.102;8.084;2023-04-25T05:39:38;14.80;;;4.63;;
20531;SDS011;10424;52.102;8.084;2023-04-25T05:42:05;16.67;;;5.33;;
20531;SDS011;10424;52.102;8.084;2023-04-25T05:44:33;15.20;;;5.23;;
20531;SDS011;10424;52.102;8.084;2023-04-25T05:47:00;14.10;;;4.37;;
20531;SDS011;10424;52.102;8.084;2023-04-25T05:49:29;19.40;;;4.40;;
20531;SDS011;10424;52.102;8.084;2023-04-25T05:51:56;14.45;;;4.07;;
20531;SDS011;10424;52.102;8.084;2023-04-25T05:54:24;17.43;;;4.80;;
20531;SDS011;10424;52.102;8.084;2023-04-25T05:56:52;18.58;;;4.07;;
20531;SDS011;10424;52.102;8.084;2023-04-25T05:59:19;20.00;;;3.90;;
20531;SDS011;10424;52.102;8.084;2023-04-25T06:01:47;20.90;;;4.32;;
20531;SDS011;10424;52.102;8.084;2023-04-25T06:04:14;16.20;;;4.68;;
20531;SDS011;10424;52.102;8.084;2023-04-25T06:06:41;16.83;;;4.40;;
20531;SDS011;10424;52.102;8.084;2023-04-25T06:09:08;11.00;;;3.95;;
20531;SDS011;10424;52.102;8.084;2023-04-25T06:11:36;21.13;;;4.90;;
20531;SDS011;10424;52.102;8.084;2023-04-25T06:14:05;16.97;;;4.13;;
20531;SDS011;10424;52.102;8.084;2023-04-25T06:16:33;14.23;;;4.20;;
20531;SDS011;10424;52.102;8.084;2023-04-25T06:19:00;17.13;;;4.30;;
20531;SDS011;10424;52.102;8.084;2023-04-25T06:21:27;12.75;;;4.00;;
20531;SDS011;10424;52.102;8.084;2023-04-25T06:23:54;15.50;;;4.07;;
20531;SDS011;10424;52.102;8.084;2023-04-25T06:26:21;14.68;;;3.67;;
20531;SDS011;10424;52.102;8.084;2023-04-25T06:28:49;12.43;;;3.75;;
20531;SDS011;10424;52.102;8.084;2023-04-25T06:31:17;19.95;;;4.13;;
20531;SDS011;10424;52.102;8.084;2023-04-25T06:33:45;18.02;;;4.20;;
20531;SDS011;10424;52.102;8.084;2023-04-25T06:36:13;13.98;;;3.80;;
20531;SDS011;10424;52.102;8.084;2023-04-25T06:38:40;12.63;;;3.60;;
20531;SDS011;10424;52.102;8.084;2023-04-25T06:41:08;11.57;;;3.22;;
20531;SDS011;10424;52.102;8.084;2023-04-25T06:43:35;13.13;;;3.80;;
20531;SDS011;10424;52.102;8.084;2023-04-25T06:46:02;15.45;;;3.65;;
20531;SDS011;10424;52.102;8.084;2023-04-25T06:48:31;13.68;;;3.97;;
20531;SDS011;10424;52.102;8.084;2023-04-25T06:50:58;9.90;;;3.55;;
20531;SDS011;10424;52.102;8.084;2023-04-25T06:53:25;16.33;;;3.55;;
20531;SDS011;10424;52.102;8.084;2023-04-25T06:55:53;10.48;;;3.28;;
20531;SDS011;10424;52.102;8.084;2023-04-25T06:58:20;14.40;;;3.38;;
20531;SDS011;10424;52.102;8.084;2023-04-25T07:00:48;12.73;;;3.40;;
20531;SDS011;10424;52.102;8.084;2023-04-25T07:03:16;14.52;;;4.22;;
20531;SDS011;10424;52.102;8.084;2023-04-25T07:05:44;14.30;;;3.53;;
20531;SDS011;10424;52.102;8.084;2023-04-25T07:08:12;17.35;;;3.25;;
20531;SDS011;10424;52.102;8.084;2023-04-25T07:10:39;14.75;;;3.13;;
20531;SDS011;10424;52.102;8.084;2023-04-25T07:13:06;12.63;;;3.17;;
20531;SDS011;10424;52.102;8.084;2023-04-25T07:15:34;15.93;;;3.53;;
20531;SDS011;10424;52.102;8.084;2023-04-25T07:18:01;13.40;;;3.25;;
20531;SDS011;10424;52.102;8.084;2023-04-25T07:20:28;14.57;;;2.92;;
20531;SDS011;10424;52.102;8.084;2023-04-25T07:22:57;13.23;;;3.40;;
20531;SDS011;10424;52.102;8.084;2023-04-25T07:25:24;12.90;;;3.15;;
20531;SDS011;10424;52.102;8.084;2023-04-25T07:27:52;12.15;;;2.83;;
20531;SDS011;10424;52.102;8.084;2023-04-25T07:30:19;16.67;;;3.33;;
20531;SDS011;10424;52.102;8.084;2023-04-25T07:32:46;16.08;;;2.80;;
20531;SDS011;10424;52.102;8.084;2023-04-25T07:35:15;13.07;;;2.80;;
20531;SDS011;10424;52.102;8.084;2023-04-25T07:37:42;13.70;;;2.85;;
20531;SDS011;10424;52.102;8.084;2023-04-25T07:40:11;10.63;;;2.80;;
20531;SDS011;10424;52.102;8.084;2023-04-25T07:42:40;10.45;;;2.97;;
20531;SDS011;10424;52.102;8.084;2023-04-25T07:45:08;11.25;;;3.05;;
20531;SDS011;10424;52.102;8.084;2023-04-25T07:47:35;13.52;;;2.75;;
20531;SDS011;10424;52.102;8.084;2023-04-25T07:50:03;9.15;;;2.80;;
20531;SDS011;10424;52.102;8.084;2023-04-25T07:52:31;10.43;;;3.20;;
20531;SDS011;10424;52.102;8.084;2023-04-25T07:54:58;13.98;;;2.92;;
20531;SDS011;10424;52.102;8.084;2023-04-25T07:57:27;13.98;;;3.17;;
20531;SDS011;10424;52.102;8.084;2023-04-25T07:59:54;10.32;;;2.50;;
20531;SDS011;10424;52.102;8.084;2023-04-25T08:02:22;10.82;;;2.70;;
20531;SDS011;10424;52.102;8.084;2023-04-25T08:04:51;10.95;;;2.50;;
20531;SDS011;10424;52.102;8.084;2023-04-25T08:07:18;9.98;;;2.58;;
20531;SDS011;10424;52.102;8.084;2023-04-25T08:09:45;9.00;;;2.30;;
20531;SDS011;10424;52.102;8.084;2023-04-25T08:12:13;11.75;;;2.20;;
20531;SDS011;10424;52.102;8.084;2023-04-25T08:14:41;9.80;;;2.40;;
20531;SDS011;10424;52.102;8.084;2023-04-25T08:17:09;9.77;;;2.25;;
20531;SDS011;10424;52.102;8.084;2023-04-25T08:19:36;12.27;;;2.85;;
20531;SDS011;10424;52.102;8.084;2023-04-25T08:22:04;7.30;;;1.95;;
20531;SDS011;10424;52.102;8.084;2023-04-25T08:24:31;14.20;;;2.65;;
20531;SDS011;10424;52.102;8.084;2023-04-25T08:26:58;9.82;;;2.55;;
20531;SDS011;10424;52.102;8.084;2023-04-25T08:29:26;10.05;;;2.20;;
20531;SDS011;10424;52.102;8.084;2023-04-25T08:31:55;8.30;;;2.03;;
20531;SDS011;10424;52.102;8.084;2023-04-25T08:34:22;9.07;;;2.08;;
20531;SDS011;10424;52.102;8.084;2023-04-25T08:36:50;7.13;;;1.77;;
20531;SDS011;10424;52.102;8.084;2023-04-25T08:39:18;5.10;;;2.17;;
20531;SDS011;10424;52.102;8.084;2023-04-25T08:41:45;6.97;;;2.00;;
20531;SDS011;10424;52.102;8.084;2023-04-25T08:44:13;8.75;;;1.90;;
20531;SDS011;10424;52.102;8.084;2023-04-25T08:46:41;6.47;;;2.28;;
20531;SDS011;10424;52.102;8.084;2023-04-25T08:49:10;8.35;;;2.20;;
20531;SDS011;10424;52.102;8.084;2023-04-25T08:51:40;7.95;;;1.98;;
20531;SDS011;10424;52.102;8.084;2023-04-25T08:54:12;6.88;;;1.50;;
20531;SDS011;10424;52.102;8.084;2023-04-25T08:56:40;4.90;;;1.58;;
20531;SDS011;10424;52.102;8.084;2023-04-25T08:59:08;5.45;;;2.25;;
20531;SDS011;10424;52.102;8.084;2023-04-25T09:01:35;7.80;;;2.00;;
20531;SDS011;10424;52.102;8.084;2023-04-25T09:04:02;6.55;;;1.80;;
20531;SDS011;10424;52.102;8.084;2023-04-25T09:06:31;6.55;;;1.75;;
20531;SDS011;10424;52.102;8.084;2023-04-25T09:09:01;7.80;;;1.88;;
20531;SDS011;10424;52.102;8.084;2023-04-25T09:11:29;4.68;;;1.58;;
20531;SDS011;10424;52.102;8.084;2023-04-25T09:14:09;5.38;;;1.67;;
20531;SDS011;10424;52.102;8.084;2023-04-25T09:16:42;8.20;;;2.05;;
20531;SDS011;10424;52.102;8.084;2023-04-25T09:19:24;5.18;;;1.75;;
20531;SDS011;10424;52.102;8.084;2023-04-25T09:21:54;11.38;;;2.05;;
20531;SDS011;10424;52.102;8.084;2023-04-25T09:24:29;7.85;;;1.73;;
20531;SDS011;10424;52.102;8.084;2023-04-25T09:26:57;6.65;;;2.10;;
20531;SDS011;10424;52.102;8.084;2023-04-25T09:29:31;7.97;;;2.50;;
20531;SDS011;10424;52.102;8.084;2023-04-25T09:32:11;6.75;;;2.00;;
20531;SDS011;10424;52.102;8.084;2023-04-25T09:34:39;8.15;;;2.20;;
20531;SDS011;10424;52.102;8.084;2023-04-25T09:37:09;9.57;;;2.05;;
20531;SDS011;10424;52.102;8.084;2023-04-25T09:39:37;12.35;;;2.15;;
20531;SDS011;10424;52.102;8.084;2023-04-25T09:42:04;6.90;;;1.85;;
20531;SDS011;10424;52.102;8.084;2023-04-25T09:44:31;9.73;;;2.35;;
20531;SDS011;10424;52.102;8.084;2023-04-25T09:46:59;9.35;;;1.92;;
20531;SDS011;10424;52.102;8.084;2023-04-25T09:49:28;11.27;;;2.38;;
20531;SDS011;10424;52.102;8.084;2023-04-25T09:51:55;6.78;;;2.22;;
20531;SDS011;10424;52.102;8.084;2023-04-25T09:54:24;9.02;;;1.95;;
20531;SDS011;10424;52.102;8.084;2023-04-25T09:56:52;8.60;;;2.13;;
20531;SDS011;10424;52.102;8.084;2023-04-25T09:59:20;5.30;;;2.03;;
20531;SDS011;10424;52.102;8.084;2023-04-25T10:01:48;10.23;;;2.20;;
20531;SDS011;10424;52.102;8.084;2023-04-25T10:04:18;4.75;;;1.73;;
20531;SDS011;10424;52.102;8.084;2023-04-25T10:06:48;3.72;;;1.52;;
20531;SDS011;10424;52.102;8.084;2023-04-25T10:09:17;5.40;;;1.58;;
20531;SDS011;10424;52.102;8.084;2023-04-25T10:11:47;5.18;;;1.45;;
20531;SDS011;10424;52.102;8.084;2023-04-25T10:14:16;8.05;;;1.42;;
20531;SDS011;10424;52.102;8.084;2023-04-25T10:16:43;5.07;;;1.42;;
20531;SDS011;10424;52.102;8.084;2023-04-25T10:19:11;4.45;;;1.25;;
20531;SDS011;10424;52.102;8.084;2023-04-25T10:21:40;5.60;;;1.60;;
20531;SDS011;10424;52.102;8.084;2023-04-25T10:24:11;7.50;;;1.92;;
20531;SDS011;10424;52.102;8.084;2023-04-25T10:26:39;6.72;;;1.58;;
20531;SDS011;10424;52.102;8.084;2023-04-25T10:29:08;5.55;;;1.48;;
20531;SDS011;10424;52.102;8.084;2023-04-25T10:31:44;4.90;;;1.65;;
20531;SDS011;10424;52.102;8.084;2023-04-25T10:34:11;4.45;;;1.67;;
20531;SDS011;10424;52.102;8.084;2023-04-25T10:36:38;7.03;;;1.90;;
20531;SDS011;10424;52.102;8.084;2023-04-25T10:39:06;7.20;;;1.50;;
20531;SDS011;10424;52.102;8.084;2023-04-25T10:41:45;6.55;;;1.65;;
20531;SDS011;10424;52.102;8.084;2023-04-25T10:44:14;8.48;;;1.80;;
20531;SDS011;10424;52.102;8.084;2023-04-25T10:46:42;4.43;;;1.60;;
20531;SDS011;10424;52.102;8.084;2023-04-25T10:49:11;5.82;;;1.65;;
20531;SDS011;10424;52.102;8.084;2023-04-25T10:54:39;5.60;;;1.30;;
20531;SDS011;10424;52.102;8.084;2023-04-25T10:57:07;4.32;;;1.48;;
20531;SDS011;10424;52.102;8.084;2023-04-25T10:59:35;6.70;;;1.77;;
20531;SDS011;10424;52.102;8.084;2023-04-25T11:02:09;4.18;;;1.40;;
20531;SDS011;10424;52.102;8.084;2023-04-25T11:04:40;4.97;;;1.40;;
20531;SDS011;10424;52.102;8.084;2023-04-25T11:07:09;5.53;;;1.70;;
20531;SDS011;10424;52.102;8.084;2023-04-25T11:09:38;6.25;;;1.70;;
20531;SDS011;10424;52.102;8.084;2023-04-25T11:12:07;10.25;;;1.73;;
20531;SDS011;10424;52.102;8.084;2023-04-25T11:14:36;3.78;;;1.50;;
20531;SDS011;10424;52.102;8.084;2023-04-25T11:17:03;6.13;;;1.63;;
20531;SDS011;10424;52.102;8.084;2023-04-25T11:19:31;4.32;;;1.40;;
20531;SDS011;10424;52.102;8.084;2023-04-25T11:21:58;6.85;;;1.58;;
20531;SDS011;10424;52.102;8.084;2023-04-25T11:24:27;3.97;;;1.33;;
20531;SDS011;10424;52.102;8.084;2023-04-25T11:26:54;7.95;;;1.50;;
20531;SDS011;10424;52.102;8.084;2023-04-25T11:29:22;3.72;;;1.15;;
20531;SDS011;10424;52.102;8.084;2023-04-25T11:31:50;5.50;;;1.50;;
20531;SDS011;10424;52.102;8.084;2023-04-25T11:34:18;4.18;;;1.40;;
20531;SDS011;10424;52.102;8.084;2023-04-25T11:36:45;3.92;;;1.30;;
20531;SDS011;10424;52.102;8.084;2023-04-25T11:39:13;2.22;;;1.20;;
20531;SDS011;10424;52.102;8.084;2023-04-25T11:41:41;3.30;;;1.02;;
20531;SDS011;10424;52.102;8.084;2023-04-25T11:44:08;5.32;;;1.50;;
20531;SDS011;10424;52.102;8.084;2023-04-25T11:46:35;3.22;;;1.27;;
20531;SDS011;10424;52.102;8.084;2023-04-25T11:49:04;4.00;;;1.48;;
20531;SDS011;10424;52.102;8.084;2023-04-25T11:51:37;3.95;;;1.48;;
20531;SDS011;10424;52.102;8.084;2023-04-25T11:54:05;4.90;;;1.50;;
20531;SDS011;10424;52.102;8.084;2023-04-25T11:56:33;5.45;;;1.33;;
20531;SDS011;10424;52.102;8.084;2023-04-25T11:59:00;3.90;;;1.30;;
20531;SDS011;10424;52.102;8.084;2023-04-25T12:01:28;6.70;;;1.63;;
20531;SDS011;10424;52.102;8.084;2023-04-25T12:03:56;4.63;;;1.35;;
20531;SDS011;10424;52.102;8.084;2023-04-25T12:06:27;5.88;;;1.20;;
20531;SDS011;10424;52.102;8.084;2023-04-25T12:09:01;5.65;;;1.55;;
20531;SDS011;10424;52.102;8.084;2023-04-25T12:11:29;2.40;;;1.20;;
20531;SDS011;10424;52.102;8.084;2023-04-25T12:14:01;4.95;;;1.38;;
20531;SDS011;10424;52.102;8.084;2023-04-25T12:16:29;4.20;;;1.30;;
20531;SDS011;10424;52.102;8.084;2023-04-25T12:18:56;5.25;;;1.40;;
20531;SDS011;10424;52.102;8.084;2023-04-25T12:21:29;3.83;;;1.27;;
20531;SDS011;10424;52.102;8.084;2023-04-25T12:23:56;4.22;;;1.17;;
20531;SDS011;10424;52.102;8.084;2023-04-25T12:26:45;3.65;;;1.10;;
20531;SDS011;10424;52.102;8.084;2023-04-25T12:29:15;3.60;;;1.00;;
20531;SDS011;10424;52.102;8.084;2023-04-25T12:31:42;3.40;;;1.10;;
20531;SDS011;10424;52.102;8.084;2023-04-25T12:34:10;2.47;;;1.20;;
20531;SDS011;10424;52.102;8.084;2023-04-25T12:36:38;2.70;;;0.93;;
20531;SDS011;10424;52.102;8.084;2023-04-25T12:39:06;2.38;;;0.93;;
20531;SDS011;10424;52.102;8.084;2023-04-25T12:41:33;3.88;;;1.27;;
20531;SDS011;10424;52.102;8.084;2023-04-25T12:44:01;4.85;;;1.30;;
20531;SDS011;10424;52.102;8.084;2023-04-25T12:46:28;3.97;;;1.27;;
20531;SDS011;10424;52.102;8.084;2023-04-25T12:48:56;3.28;;;1.20;;
20531;SDS011;10424;52.102;8.084;2023-04-25T12:51:24;4.43;;;1.35;;
20531;SDS011;10424;52.102;8.084;2023-04-25T12:53:54;4.85;;;1.40;;
20531;SDS011;10424;52.102;8.084;2023-04-25T12:56:21;3.58;;;1.30;;
20531;SDS011;10424;52.102;8.084;2023-04-25T12:58:50;2.92;;;1.25;;
20531;SDS011;10424;52.102;8.084;2023-04-25T13:01:17;3.15;;;1.13;;
20531;SDS011;10424;52.102;8.084;2023-04-25T13:03:45;4.70;;;1.88;;
20531;SDS011;10424;52.102;8.084;2023-04-25T13:06:13;3.40;;;1.02;;
20531;SDS011;10424;52.102;8.084;2023-04-25T13:08:40;5.18;;;1.30;;
20531;SDS011;10424;52.102;8.084;2023-04-25T13:11:09;5.32;;;1.23;;
20531;SDS011;10424;52.102;8.084;2023-04-25T13:13:37;1.98;;;0.90;;
20531;SDS011;10424;52.102;8.084;2023-04-25T13:16:05;1.92;;;0.90;;
20531;SDS011;10424;52.102;8.084;2023-04-25T13:18:32;3.55;;;1.00;;
20531;SDS011;10424;52.102;8.084;2023-04-25T13:21:00;5.95;;;1.10;;
20531;SDS011;10424;52.102;8.084;2023-04-25T13:23:28;3.08;;;1.15;;
20531;SDS011;10424;52.102;8.084;2023-04-25T13:25:56;3.63;;;1.00;;
20531;SDS011;10424;52.102;8.084;2023-04-25T13:28:24;3.10;;;1.00;;
20531;SDS011;10424;52.102;8.084;2023-04-25T13:30:52;6.40;;;1.40;;
20531;SDS011;10424;52.102;8.084;2023-04-25T13:33:19;4.10;;;1.20;;
20531;SDS011;10424;52.102;8.084;2023-04-25T13:35:47;6.47;;;1.20;;
20531;SDS011;10424;52.102;8.084;2023-04-25T13:38:19;4.22;;;1.30;;
20531;SDS011;10424;52.102;8.084;2023-04-25T13:40:46;4.15;;;1.40;;
20531;SDS011;10424;52.102;8.084;2023-04-25T13:43:13;4.75;;;1.25;;
20531;SDS011;10424;52.102;8.084;2023-04-25T13:45:42;4.13;;;1.33;;
20531;SDS011;10424;52.102;8.084;2023-04-25T13:48:10;2.85;;;1.00;;
20531;SDS011;10424;52.102;8.084;2023-04-25T13:50:37;2.17;;;1.10;;
20531;SDS011;10424;52.102;8.084;2023-04-25T13:53:04;5.72;;;1.17;;
20531;SDS011;10424;52.102;8.084;2023-04-25T13:55:33;3.63;;;1.38;;
20531;SDS011;10424;52.102;8.084;2023-04-25T13:58:01;4.22;;;1.40;;
20531;SDS011;10424;52.102;8.084;2023-04-25T14:00:32;4.00;;;1.30;;
20531;SDS011;10424;52.102;8.084;2023-04-25T14:03:01;5.95;;;1.48;;
20531;SDS011;10424;52.102;8.084;2023-04-25T14:05:32;4.97;;;1.23;;
20531;SDS011;10424;52.102;8.084;2023-04-25T14:08:03;5.57;;;1.20;;
20531;SDS011;10424;52.102;8.084;2023-04-25T14:10:30;4.68;;;1.77;;
20531;SDS011;10424;52.102;8.084;2023-04-25T14:12:58;4.18;;;1.20;;
20531;SDS011;10424;52.102;8.084;2023-04-25T14:15:25;7.38;;;1.50;;
20531;SDS011;10424;52.102;8.084;2023-04-25T14:17:53;4.22;;;1.25;;
20531;SDS011;10424;52.102;8.084;2023-04-25T14:20:21;3.20;;;1.38;;
20531;SDS011;10424;52.102;8.084;2023-04-25T14:22:49;9.50;;;1.50;;
20531;SDS011;10424;52.102;8.084;2023-04-25T14:25:17;5.78;;;1.50;;
20531;SDS011;10424;52.102;8.084;2023-04-25T14:27:44;5.78;;;1.60;;
20531;SDS011;10424;52.102;8.084;2023-04-25T14:30:14;5.28;;;1.70;;
20531;SDS011;10424;52.102;8.084;2023-04-25T14:32:42;3.70;;;1.40;;
20531;SDS011;10424;52.102;8.084;2023-04-25T14:35:10;5.32;;;1.40;;
20531;SDS011;10424;52.102;8.084;2023-04-25T14:37:39;2.00;;;1.33;;
20531;SDS011;10424;52.102;8.084;2023-04-25T14:40:06;5.82;;;1.45;;
20531;SDS011;10424;52.102;8.084;2023-04-25T14:42:35;6.13;;;1.40;;
20531;SDS011;10424;52.102;8.084;2023-04-25T14:45:03;6.50;;;1.27;;
20531;SDS011;10424;52.102;8.084;2023-04-25T14:47:31;3.22;;;1.33;;
20531;SDS011;10424;52.102;8.084;2023-04-25T14:49:58;3.28;;;1.10;;
20531;SDS011;10424;52.102;8.084;2023-04-25T14:52:26;4.50;;;1.20;;